createdAt,value
2018-04-19T00:01:28.762Z,11.70
2018-04-19T00:04:01.176Z,12.70
2018-04-19T00:06:33.642Z,12.83
2018-04-19T00:09:06.103Z,11.60
2018-04-19T00:11:38.443Z,11.90
2018-04-19T00:14:10.848Z,12.03
2018-04-19T00:16:43.885Z,11.03
2018-04-19T00:19:16.563Z,11.50
2018-04-19T00:21:48.969Z,13.53
2018-04-19T00:24:21.359Z,11.17
2018-04-19T00:26:53.966Z,12.20
2018-04-19T00:29:26.558Z,13.23
2018-04-19T00:31:59.358Z,12.23
2018-04-19T00:34:31.893Z,12.73
2018-04-19T00:37:04.420Z,12.50
2018-04-19T00:39:37.134Z,13.03
2018-04-19T00:42:09.769Z,13.60
2018-04-19T00:44:42.158Z,12.87
2018-04-19T00:47:14.625Z,12.50
2018-04-19T00:49:47.233Z,12.30
2018-04-19T00:52:21.457Z,12.37
2018-04-19T00:54:53.879Z,12.43
2018-04-19T00:57:27.165Z,11.63
2018-04-19T01:00:00.550Z,10.90
2018-04-19T01:02:33.031Z,11.60
2018-04-19T01:05:05.479Z,12.03
2018-04-19T01:07:37.900Z,11.23
2018-04-19T01:10:10.564Z,11.93
2018-04-19T01:12:44.046Z,11.50
2018-04-19T01:15:16.695Z,12.03
2018-04-19T01:17:49.130Z,11.40
2018-04-19T01:20:22.236Z,11.93
2018-04-19T01:22:54.813Z,11.90
2018-04-19T01:25:28.151Z,11.10
2018-04-19T01:28:00.740Z,11.90
2018-04-19T01:30:33.301Z,12.37
2018-04-19T01:33:06.466Z,12.80
2018-04-19T01:35:51.401Z,12.37
2018-04-19T01:38:23.899Z,11.97
2018-04-19T01:40:56.433Z,13.90
2018-04-19T01:43:29.001Z,12.97
2018-04-19T01:46:01.334Z,12.77
2018-04-19T01:48:33.856Z,13.30
2018-04-19T01:51:06.284Z,13.33
2018-04-19T01:53:38.769Z,12.53
2018-04-19T01:56:11.906Z,12.23
2018-04-19T01:58:44.508Z,13.87
2018-04-19T02:01:17.700Z,13.60
2018-04-19T02:03:51.582Z,13.30
2018-04-19T02:06:24.134Z,13.63
2018-04-19T02:08:56.622Z,13.30
2018-04-19T02:11:30.005Z,14.43
2018-04-19T02:14:02.574Z,13.50
2018-04-19T02:16:35.213Z,12.93
2018-04-19T02:19:08.520Z,12.23
2018-04-19T02:21:41.678Z,13.53
2018-04-19T02:24:14.020Z,13.07
2018-04-19T02:26:46.438Z,13.03
2018-04-19T02:29:19.039Z,12.40
2018-04-19T02:31:51.520Z,13.13
2018-04-19T02:34:23.931Z,13.07
2018-04-19T02:36:56.485Z,13.30
2018-04-19T02:39:28.855Z,12.20
2018-04-19T02:42:02.040Z,13.73
2018-04-19T02:44:34.426Z,12.83
2018-04-19T02:47:07.024Z,13.00
2018-04-19T02:49:40.335Z,14.10
2018-04-19T02:52:12.784Z,13.10
2018-04-19T02:54:45.264Z,13.70
2018-04-19T02:57:17.944Z,14.97
2018-04-19T02:59:50.355Z,14.13
2018-04-19T03:02:22.741Z,13.47
2018-04-19T03:04:55.245Z,14.20
2018-04-19T03:07:27.849Z,14.67
2018-04-19T03:10:00.504Z,14.23
2018-04-19T03:12:33.272Z,15.33
2018-04-19T03:15:05.749Z,14.17
2018-04-19T03:17:39.543Z,14.67
2018-04-19T03:20:11.962Z,14.40
2018-04-19T03:22:44.370Z,14.23
2018-04-19T03:25:16.889Z,13.87
2018-04-19T03:27:49.443Z,14.93
2018-04-19T03:30:22.851Z,14.60
2018-04-19T03:32:56.056Z,15.00
2018-04-19T03:35:29.494Z,14.23
2018-04-19T03:38:02.135Z,14.33
2018-04-19T03:40:34.909Z,15.83
2018-04-19T03:43:07.467Z,14.93
2018-04-19T03:45:39.924Z,14.90
2018-04-19T03:48:12.510Z,15.70
2018-04-19T03:50:44.929Z,13.13
2018-04-19T03:53:18.278Z,15.20
2018-04-19T03:55:50.840Z,15.60
2018-04-19T03:58:23.599Z,14.63
2018-04-19T04:00:56.220Z,14.27
2018-04-19T04:03:29.300Z,15.07
2018-04-19T04:06:09.306Z,14.73
2018-04-19T04:08:42.699Z,16.00
2018-04-19T04:11:15.358Z,15.03
2018-04-19T04:13:47.932Z,16.43
2018-04-19T04:16:32.779Z,16.50
2018-04-19T04:19:18.254Z,15.87
2018-04-19T04:22:17.356Z,17.57
2018-04-19T04:24:49.836Z,16.97
2018-04-19T04:27:22.254Z,19.40
2018-04-19T04:29:55.529Z,18.97
2018-04-19T04:32:29.074Z,16.17
2018-04-19T04:35:01.600Z,15.33
2018-04-19T04:37:34.171Z,13.93
2018-04-19T04:40:07.463Z,15.37
2018-04-19T04:42:39.945Z,16.83
2018-04-19T04:45:12.746Z,15.67
2018-04-19T04:47:45.343Z,14.87
2018-04-19T04:50:18.401Z,14.53
2018-04-19T04:52:50.916Z,15.20
2018-04-19T04:55:23.434Z,14.17
2018-04-19T04:57:55.810Z,14.37
2018-04-19T05:00:28.288Z,14.27
2018-04-19T05:03:00.866Z,13.87
2018-04-19T05:05:33.267Z,13.97
2018-04-19T05:08:05.823Z,13.10
2018-04-19T05:10:38.403Z,14.10
2018-04-19T05:13:10.979Z,13.53
2018-04-19T05:15:43.407Z,14.70
2018-04-19T05:18:15.756Z,14.03
2018-04-19T05:20:48.949Z,13.73
2018-04-19T05:23:22.698Z,12.83
2018-04-19T05:25:55.136Z,13.77
2018-04-19T05:28:27.586Z,13.47
2018-04-19T05:31:00.367Z,13.57
2018-04-19T05:33:33.071Z,13.50
2018-04-19T05:36:05.521Z,12.50
2018-04-19T05:38:38.336Z,12.63
2018-04-19T05:41:10.786Z,13.00
2018-04-19T05:43:44.040Z,12.17
2018-04-19T05:46:17.154Z,11.17
2018-04-19T05:48:49.471Z,11.90
2018-04-19T05:51:22.020Z,11.13
2018-04-19T05:53:54.530Z,10.80
2018-04-19T05:56:27.255Z,11.23
2018-04-19T05:58:59.836Z,12.30
2018-04-19T06:01:32.591Z,10.97
2018-04-19T06:04:05.055Z,10.80
2018-04-19T06:06:37.706Z,10.63
2018-04-19T06:09:10.536Z,10.80
2018-04-19T06:11:42.887Z,10.47
2018-04-19T06:14:16.219Z,10.30
2018-04-19T06:16:48.715Z,9.73
2018-04-19T06:19:22.667Z,10.20
2018-04-19T06:21:55.147Z,10.57
2018-04-19T06:24:27.833Z,9.37
2018-04-19T06:27:00.249Z,8.17
2018-04-19T06:29:32.844Z,9.23
2018-04-19T06:32:05.504Z,8.30
2018-04-19T06:34:38.676Z,8.33
2018-04-19T06:37:11.049Z,7.90
2018-04-19T06:39:43.719Z,8.00
2018-04-19T06:42:16.086Z,8.30
2018-04-19T06:44:48.440Z,8.70
2018-04-19T06:47:20.974Z,7.97
2018-04-19T06:49:53.454Z,7.53
2018-04-19T06:52:25.834Z,7.77
2018-04-19T06:54:58.987Z,7.83
2018-04-19T06:57:31.660Z,7.87
2018-04-19T07:00:04.122Z,7.67
2018-04-19T07:02:36.511Z,7.77
2018-04-19T07:05:08.900Z,8.17
2018-04-19T07:07:42.146Z,7.67
2018-04-19T07:10:14.744Z,6.80
2018-04-19T07:12:47.270Z,7.33
2018-04-19T07:15:19.791Z,7.13
2018-04-19T07:17:53.004Z,7.60
2018-04-19T07:20:25.757Z,7.63
2018-04-19T07:22:58.266Z,7.17
2018-04-19T07:25:30.671Z,7.07
2018-04-19T07:28:03.268Z,6.65
2018-04-19T07:30:36.585Z,7.12
2018-04-19T07:33:08.890Z,7.18
2018-04-19T07:35:41.563Z,6.62
2018-04-19T07:38:14.068Z,6.85
2018-04-19T07:40:46.485Z,6.60
2018-04-19T07:43:19.091Z,7.43
2018-04-19T07:45:52.491Z,6.68
2018-04-19T07:48:24.855Z,6.30
2018-04-19T07:50:57.344Z,7.10
2018-04-19T07:53:29.955Z,6.93
2018-04-19T07:56:02.732Z,6.78
2018-04-19T07:58:35.275Z,7.10
2018-04-19T08:01:14.715Z,7.03
2018-04-19T08:03:47.255Z,7.10
2018-04-19T08:06:20.258Z,7.82
2018-04-19T08:08:52.819Z,7.57
2018-04-19T08:11:25.325Z,8.68
2018-04-19T08:13:57.847Z,8.65
2018-04-19T08:16:30.225Z,9.10
2018-04-19T08:19:02.790Z,9.30
2018-04-19T08:21:35.401Z,8.30
2018-04-19T08:24:07.879Z,8.07
2018-04-19T08:26:40.556Z,8.20
2018-04-19T08:29:12.979Z,8.30
2018-04-19T08:31:45.340Z,7.70
2018-04-19T08:34:17.878Z,7.60
2018-04-19T08:36:51.246Z,7.30
2018-04-19T08:39:23.898Z,6.90
2018-04-19T08:41:57.162Z,7.57
2018-04-19T08:44:29.759Z,7.32
2018-04-19T08:47:02.250Z,7.37
2018-04-19T08:49:34.642Z,7.25
2018-04-19T08:52:07.106Z,7.32
2018-04-19T08:54:40.296Z,7.20
2018-04-19T08:57:12.887Z,7.25
2018-04-19T08:59:45.464Z,7.12
2018-04-19T09:02:18.176Z,7.10
2018-04-19T09:04:51.596Z,6.43
2018-04-19T09:07:24.113Z,6.57
2018-04-19T09:09:56.606Z,6.32
2018-04-19T09:12:29.195Z,7.18
2018-04-19T09:15:01.756Z,6.78
2018-04-19T09:17:35.147Z,7.32
2018-04-19T09:20:07.615Z,6.60
2018-04-19T09:22:40.137Z,6.20
2018-04-19T09:25:13.435Z,5.80
2018-04-19T09:27:45.840Z,5.68
2018-04-19T09:30:19.190Z,6.00
2018-04-19T09:32:51.825Z,6.70
2018-04-19T09:35:24.301Z,6.10
2018-04-19T09:37:57.465Z,6.55
2018-04-19T09:40:29.926Z,6.72
2018-04-19T09:43:02.442Z,5.82
2018-04-19T09:45:35.507Z,6.93
2018-04-19T09:48:07.870Z,6.07
2018-04-19T09:50:40.464Z,5.90
2018-04-19T09:53:13.076Z,5.90
2018-04-19T09:55:46.451Z,6.37
2018-04-19T09:58:19.418Z,6.50
2018-04-19T10:00:58.079Z,5.55
2018-04-19T10:03:36.605Z,5.72
2018-04-19T10:06:09.013Z,5.40
2018-04-19T10:08:41.640Z,6.30
2018-04-19T10:11:14.220Z,6.70
2018-04-19T10:13:47.641Z,5.80
2018-04-19T10:16:20.416Z,5.55
2018-04-19T10:18:53.182Z,6.45
2018-04-19T10:21:26.534Z,5.53
2018-04-19T10:23:59.781Z,5.72
2018-04-19T10:26:32.360Z,5.57
2018-04-19T10:29:04.920Z,5.93
2018-04-19T10:31:37.492Z,6.00
2018-04-19T10:34:10.738Z,5.32
2018-04-19T10:36:43.260Z,5.22
2018-04-19T10:39:15.857Z,5.10
2018-04-19T10:41:48.405Z,5.07
2018-04-19T10:44:21.010Z,4.15
2018-04-19T10:46:53.565Z,4.60
2018-04-19T10:49:25.972Z,4.90
2018-04-19T10:51:59.052Z,4.32
2018-04-19T10:54:31.596Z,4.07
2018-04-19T10:57:04.888Z,4.53
2018-04-19T10:59:38.177Z,3.72
2018-04-19T11:02:10.549Z,28.40
2018-04-19T11:04:43.127Z,28.80
2018-04-19T11:07:15.702Z,5.47
2018-04-19T11:09:48.151Z,3.62
2018-04-19T11:12:20.550Z,3.60
2018-04-19T11:14:53.900Z,4.68
2018-04-19T11:17:26.394Z,5.00
2018-04-19T11:19:58.960Z,4.30
2018-04-19T11:22:32.214Z,4.10
2018-04-19T11:25:04.735Z,4.53
2018-04-19T11:27:37.296Z,4.00
2018-04-19T11:30:09.715Z,3.65
2018-04-19T11:32:42.082Z,4.18
2018-04-19T11:35:14.590Z,3.90
2018-04-19T11:37:47.235Z,4.45
2018-04-19T11:40:19.719Z,3.62
2018-04-19T11:42:52.361Z,3.40
2018-04-19T11:45:24.828Z,3.70
2018-04-19T11:47:57.409Z,3.25
2018-04-19T11:50:30.748Z,4.10
2018-04-19T11:53:03.202Z,3.65
2018-04-19T11:55:35.681Z,3.55
2018-04-19T11:58:08.834Z,2.90
2018-04-19T12:00:41.345Z,3.33
2018-04-19T12:03:14.085Z,3.53
2018-04-19T12:05:47.463Z,3.90
2018-04-19T12:08:19.997Z,4.00
2018-04-19T12:10:53.135Z,3.90
2018-04-19T12:13:25.836Z,4.28
2018-04-19T12:15:58.425Z,4.28
2018-04-19T12:18:31.556Z,4.05
2018-04-19T12:21:04.210Z,3.42
2018-04-19T12:23:36.725Z,3.87
2018-04-19T12:26:09.297Z,3.78
2018-04-19T12:28:42.542Z,3.80
2018-04-19T12:31:15.172Z,3.87
2018-04-19T12:33:47.743Z,4.25
2018-04-19T12:36:21.040Z,3.67
2018-04-19T12:38:54.170Z,4.45
2018-04-19T12:41:26.717Z,5.28
2018-04-19T12:43:59.465Z,6.20
2018-04-19T12:46:32.007Z,7.68
2018-04-19T12:49:04.286Z,6.95
2018-04-19T12:51:36.817Z,6.87
2018-04-19T12:54:09.267Z,7.00
2018-04-19T12:56:41.587Z,9.10
2018-04-19T12:59:14.242Z,7.18
2018-04-19T13:01:46.708Z,7.18
2018-04-19T13:04:19.081Z,6.95
2018-04-19T13:06:51.487Z,8.10
2018-04-19T13:09:23.867Z,6.57
2018-04-19T13:11:56.212Z,7.03
2018-04-19T13:14:28.872Z,7.93
2018-04-19T13:17:01.476Z,6.80
2018-04-19T13:19:34.067Z,7.22
2018-04-19T13:22:06.691Z,7.32
2018-04-19T13:24:39.076Z,7.12
2018-04-19T13:27:12.246Z,6.20
2018-04-19T13:29:44.995Z,6.18
2018-04-19T13:32:17.472Z,6.07
2018-04-19T13:34:50.124Z,6.60
2018-04-19T13:37:22.600Z,5.72
2018-04-19T13:39:55.336Z,6.00
2018-04-19T13:42:27.738Z,6.03
2018-04-19T13:45:00.326Z,6.07
2018-04-19T13:47:33.053Z,4.70
2018-04-19T13:50:05.761Z,4.80
2018-04-19T13:52:38.388Z,5.82
2018-04-19T13:55:10.771Z,5.10
2018-04-19T13:57:43.463Z,4.62
2018-04-19T14:00:15.862Z,5.90
2018-04-19T14:02:48.473Z,4.82
2018-04-19T14:05:20.891Z,4.55
2018-04-19T14:07:54.018Z,5.22
2018-04-19T14:10:26.439Z,5.00
2018-04-19T14:12:58.788Z,4.50
2018-04-19T14:15:32.201Z,4.30
2018-04-19T14:18:04.796Z,4.97
2018-04-19T14:20:37.310Z,4.30
2018-04-19T14:23:10.689Z,4.57
2018-04-19T14:25:44.076Z,4.32
2018-04-19T14:28:16.966Z,3.95
2018-04-19T14:30:49.517Z,3.50
2018-04-19T14:33:22.096Z,4.28
2018-04-19T14:35:55.354Z,4.07
2018-04-19T14:38:27.817Z,3.62
2018-04-19T14:41:00.953Z,3.65
2018-04-19T14:43:33.659Z,3.47
2018-04-19T14:46:06.205Z,3.62
2018-04-19T14:48:38.583Z,3.25
2018-04-19T14:51:11.392Z,3.33
2018-04-19T14:53:43.858Z,3.67
2018-04-19T14:56:16.184Z,3.75
2018-04-19T14:58:49.843Z,3.50
2018-04-19T15:01:22.494Z,3.75
2018-04-19T15:03:55.137Z,3.22
2018-04-19T15:06:27.798Z,3.22
2018-04-19T15:09:00.565Z,3.22
2018-04-19T15:11:34.076Z,3.22
2018-04-19T15:14:06.591Z,3.40
2018-04-19T15:16:39.693Z,3.60
2018-04-19T15:19:12.218Z,3.28
2018-04-19T15:21:45.317Z,3.40
2018-04-19T15:24:18.732Z,3.20
2018-04-19T15:26:51.968Z,3.37
2018-04-19T15:29:25.127Z,3.30
2018-04-19T15:31:57.662Z,3.80
2018-04-19T15:34:30.866Z,3.58
2018-04-19T15:37:04.190Z,3.45
2018-04-19T15:39:37.516Z,3.53
2018-04-19T15:42:09.920Z,3.85
2018-04-19T15:44:42.217Z,3.22
2018-04-19T15:47:14.984Z,3.47
2018-04-19T15:49:48.352Z,3.67
2018-04-19T15:52:21.484Z,3.50
2018-04-19T15:54:55.448Z,3.72
2018-04-19T15:57:27.927Z,3.35
2018-04-19T16:00:01.029Z,3.42
2018-04-19T16:02:34.271Z,3.50
2018-04-19T16:05:07.026Z,3.20
2018-04-19T16:07:39.781Z,3.00
2018-04-19T16:10:12.412Z,3.60
2018-04-19T16:12:44.913Z,3.40
2018-04-19T16:15:17.592Z,3.10
2018-04-19T16:17:50.374Z,3.53
2018-04-19T16:20:23.742Z,4.10
2018-04-19T16:22:56.308Z,3.78
2018-04-19T16:25:29.118Z,3.72
2018-04-19T16:28:01.564Z,3.50
2018-04-19T16:30:34.079Z,3.90
2018-04-19T16:33:06.591Z,3.58
2018-04-19T16:35:39.400Z,3.83
2018-04-19T16:38:12.757Z,4.10
2018-04-19T16:40:45.130Z,4.18
2018-04-19T16:43:18.325Z,3.90
2018-04-19T16:45:50.856Z,3.45
2018-04-19T16:48:24.238Z,3.90
2018-04-19T16:50:56.686Z,3.87
2018-04-19T16:53:29.226Z,4.10
2018-04-19T16:56:03.633Z,4.12
2018-04-19T16:58:37.000Z,3.87
2018-04-19T17:01:09.681Z,3.72
2018-04-19T17:03:42.875Z,3.97
2018-04-19T17:06:15.421Z,3.53
2018-04-19T17:08:48.109Z,3.97
2018-04-19T17:11:20.830Z,4.12
2018-04-19T17:13:53.444Z,5.10
2018-04-19T17:16:26.040Z,4.00
2018-04-19T17:18:58.679Z,3.80
2018-04-19T17:21:31.193Z,3.92
2018-04-19T17:24:04.522Z,3.72
2018-04-19T17:26:37.294Z,3.90
2018-04-19T17:29:10.010Z,3.60
2018-04-19T17:31:43.465Z,3.55
2018-04-19T17:34:15.922Z,4.10
2018-04-19T17:36:48.438Z,3.90
2018-04-19T17:39:21.016Z,3.87
2018-04-19T17:41:54.147Z,3.87
2018-04-19T17:44:27.379Z,3.70
2018-04-19T17:46:59.984Z,3.95
2018-04-19T17:49:32.594Z,4.20
2018-04-19T17:52:05.025Z,4.50
2018-04-19T17:54:37.632Z,4.30
2018-04-19T17:57:10.103Z,4.07
2018-04-19T17:59:42.667Z,4.37
2018-04-19T18:02:15.292Z,4.32
2018-04-19T18:04:48.037Z,4.57
2018-04-19T18:07:21.183Z,4.62
2018-04-19T18:09:53.712Z,4.10
2018-04-19T18:12:26.397Z,4.82
2018-04-19T18:14:59.025Z,4.10
2018-04-19T18:17:31.685Z,4.55
2018-04-19T18:20:04.262Z,5.10
2018-04-19T18:22:37.115Z,5.07
2018-04-19T18:25:09.552Z,5.85
2018-04-19T18:27:42.139Z,4.93
2018-04-19T18:30:14.721Z,5.15
2018-04-19T18:32:47.489Z,5.12
2018-04-19T18:35:20.606Z,5.25
2018-04-19T18:37:54.096Z,4.47
2018-04-19T18:40:26.921Z,4.60
2018-04-19T18:42:59.447Z,4.40
2018-04-19T18:45:31.970Z,4.18
2018-04-19T18:48:04.528Z,4.12
2018-04-19T18:50:37.927Z,4.62
2018-04-19T18:53:11.114Z,4.40
2018-04-19T18:55:43.776Z,4.22
2018-04-19T18:58:16.313Z,4.25
2018-04-19T19:00:49.144Z,4.00
2018-04-19T19:03:21.940Z,4.30
2018-04-19T19:05:55.352Z,4.40
2018-04-19T19:08:27.894Z,4.22
2018-04-19T19:11:00.429Z,4.00
2018-04-19T19:13:33.121Z,4.18
2018-04-19T19:16:12.826Z,4.90
2018-04-19T19:18:57.972Z,4.20
2018-04-19T19:21:30.579Z,4.30
2018-04-19T19:24:03.197Z,4.62
2018-04-19T19:26:35.969Z,4.45
2018-04-19T19:29:08.530Z,4.40
2018-04-19T19:31:41.319Z,4.20
2018-04-19T19:34:14.033Z,3.90
2018-04-19T19:36:46.818Z,3.75
2018-04-19T19:39:19.498Z,3.80
2018-04-19T19:41:52.970Z,4.05
2018-04-19T19:44:26.277Z,3.90
2018-04-19T19:46:59.687Z,3.62
2018-04-19T19:49:27.043Z,3.95
2018-04-19T19:51:55.186Z,3.87
2018-04-19T19:54:21.738Z,3.28
2018-04-19T19:56:48.368Z,3.40
2018-04-19T19:59:14.772Z,3.55
2018-04-19T20:01:41.144Z,3.47
2018-04-19T20:04:08.448Z,3.67
2018-04-19T20:06:36.555Z,3.28
2018-04-19T20:09:03.254Z,5.57
2018-04-19T20:11:29.891Z,4.22
2018-04-19T20:13:56.453Z,3.53
2018-04-19T20:16:22.852Z,3.47
2018-04-19T20:18:49.471Z,3.60
2018-04-19T20:21:17.734Z,3.70
2018-04-19T20:23:44.138Z,3.60
2018-04-19T20:26:10.994Z,3.62
2018-04-19T20:28:38.114Z,3.22
2018-04-19T20:31:10.928Z,3.85
2018-04-19T20:33:43.372Z,4.40
2018-04-19T20:36:15.870Z,4.68
2018-04-19T20:38:49.282Z,4.65
2018-04-19T20:41:21.719Z,5.20
2018-04-19T20:43:54.253Z,4.70
2018-04-19T20:46:26.718Z,5.28
2018-04-19T20:48:59.656Z,4.60
2018-04-19T20:51:32.082Z,6.63
2018-04-19T20:54:04.486Z,6.90
2018-04-19T20:56:37.723Z,6.72
2018-04-19T20:59:10.327Z,6.63
2018-04-19T21:01:42.769Z,6.90
2018-04-19T21:04:15.748Z,6.67
2018-04-19T21:06:48.473Z,6.97
2018-04-19T21:09:21.751Z,7.47
2018-04-19T21:11:54.262Z,7.43
2018-04-19T21:14:27.969Z,6.95
2018-04-19T21:17:01.138Z,8.17
2018-04-19T21:19:33.671Z,8.33
2018-04-19T21:22:06.553Z,8.43
2018-04-19T21:24:39.068Z,7.68
2018-04-19T21:27:11.591Z,8.60
2018-04-19T21:29:44.270Z,8.50
2018-04-19T21:32:16.932Z,9.60
2018-04-19T21:34:49.963Z,9.38
2018-04-19T21:37:22.400Z,8.82
2018-04-19T21:39:54.798Z,8.60
2018-04-19T21:42:27.267Z,10.07
2018-04-19T21:45:00.547Z,9.10
2018-04-19T21:47:33.834Z,9.67
2018-04-19T21:50:06.169Z,9.20
2018-04-19T21:52:38.712Z,11.10
2018-04-19T21:55:11.463Z,10.27
2018-04-19T21:57:44.078Z,9.73
2018-04-19T22:00:17.444Z,10.70
2018-04-19T22:02:50.379Z,10.37
2018-04-19T22:05:23.813Z,11.03
2018-04-19T22:07:56.734Z,10.83
2018-04-19T22:10:29.109Z,11.23
2018-04-19T22:13:03.067Z,13.03
2018-04-19T22:15:35.482Z,13.03
2018-04-19T22:18:08.584Z,12.90
2018-04-19T22:20:41.158Z,13.73
2018-04-19T22:23:14.000Z,13.10
2018-04-19T22:25:46.579Z,12.97
2018-04-19T22:28:19.198Z,13.03
2018-04-19T22:30:51.697Z,12.50
2018-04-19T22:33:24.433Z,12.47
2018-04-19T22:35:57.098Z,13.63
2018-04-19T22:38:29.702Z,12.30
2018-04-19T22:41:02.498Z,13.20
2018-04-19T22:43:36.097Z,12.33
2018-04-19T22:46:08.834Z,12.33
2018-04-19T22:48:42.228Z,12.87
2018-04-19T22:51:14.975Z,13.43
2018-04-19T22:53:47.579Z,12.77
2018-04-19T22:56:20.431Z,13.70
2018-04-19T22:58:53.294Z,12.87
2018-04-19T23:01:26.075Z,12.87
2018-04-19T23:03:58.848Z,13.30
2018-04-19T23:06:31.834Z,12.93
2018-04-19T23:09:05.366Z,12.90
2018-04-19T23:11:38.970Z,13.33
2018-04-19T23:14:13.329Z,13.13
2018-04-19T23:16:46.589Z,13.00
2018-04-19T23:19:19.374Z,13.33
2018-04-19T23:21:51.965Z,13.03
2018-04-19T23:24:25.443Z,13.63
2018-04-19T23:26:58.192Z,13.93
2018-04-19T23:29:30.866Z,14.00
2018-04-19T23:32:03.508Z,14.43
2018-04-19T23:34:36.335Z,14.07
2018-04-19T23:37:09.630Z,14.20
2018-04-19T23:39:43.333Z,14.70
2018-04-19T23:42:16.760Z,14.27
2018-04-19T23:44:49.546Z,13.57
2018-04-19T23:47:22.078Z,13.20
2018-04-19T23:49:54.720Z,13.77
2018-04-19T23:52:28.253Z,13.97
2018-04-19T23:55:00.970Z,13.13
2018-04-19T23:57:34.406Z,13.30
